Map

Track Data

SID SEASON NUMBER BASIN SUBBASIN NAME ISO_TIME NATURE LAT LON WMO_WIND WMO_PRES WMO_AGENCY TRACK_TYPE DIST2LAND LANDFALL IFLAG USA_AGENCY USA_ATCF_ID USA_LAT USA_LON USA_RECORD USA_STATUS USA_WIND USA_PRES USA_SSHS USA_R34_NE USA_R34_SE USA_R34_SW USA_R34_NW USA_R50_NE USA_R50_SE USA_R50_SW USA_R50_NW USA_R64_NE USA_R64_SE USA_R64_SW USA_R64_NW USA_POCI USA_ROCI USA_RMW USA_EYE TOKYO_LAT TOKYO_LON TOKYO_GRADE TOKYO_WIND TOKYO_PRES TOKYO_R50_DIR TOKYO_R50_LONG TOKYO_R50_SHORT TOKYO_R30_DIR TOKYO_R30_LONG TOKYO_R30_SHORT TOKYO_LAND CMA_LAT CMA_LON CMA_CAT CMA_WIND CMA_PRES HKO_LAT HKO_LON HKO_CAT HKO_WIND HKO_PRES NEWDELHI_LAT NEWDELHI_LON NEWDELHI_GRADE NEWDELHI_WIND NEWDELHI_PRES NEWDELHI_CI NEWDELHI_DP NEWDELHI_POCI REUNION_LAT REUNION_LON REUNION_TYPE REUNION_WIND REUNION_PRES REUNION_TNUM REUNION_CI REUNION_RMW REUNION_R34_NE REUNION_R34_SE REUNION_R34_SW REUNION_R34_NW REUNION_R50_NE REUNION_R50_SE REUNION_R50_SW REUNION_R50_NW REUNION_R64_NE REUNION_R64_SE REUNION_R64_SW REUNION_R64_NW BOM_LAT BOM_LON BOM_TYPE BOM_WIND BOM_PRES BOM_TNUM BOM_CI BOM_RMW BOM_R34_NE BOM_R34_SE BOM_R34_SW BOM_R34_NW BOM_R50_NE BOM_R50_SE BOM_R50_SW BOM_R50_NW BOM_R64_NE BOM_R64_SE BOM_R64_SW BOM_R64_NW BOM_ROCI BOM_POCI BOM_EYE BOM_POS_METHOD BOM_PRES_METHOD NADI_LAT NADI_LON NADI_CAT NADI_WIND NADI_PRES WELLINGTON_LAT WELLINGTON_LON WELLINGTON_WIND WELLINGTON_PRES DS824_LAT DS824_LON DS824_STAGE DS824_WIND DS824_PRES TD9636_LAT TD9636_LON TD9636_STAGE TD9636_WIND TD9636_PRES TD9635_LAT TD9635_LON TD9635_WIND TD9635_PRES TD9635_ROCI NEUMANN_LAT NEUMANN_LON NEUMANN_CLASS NEUMANN_WIND NEUMANN_PRES MLC_LAT MLC_LON MLC_CLASS MLC_WIND MLC_PRES USA_GUST BOM_GUST BOM_GUST_PER REUNION_GUST REUNION_GUST_PER USA_SEAHGT USA_SEARAD_NE USA_SEARAD_SE USA_SEARAD_SW USA_SEARAD_NW STORM_SPEED STORM_DIR
1881223N13333 1881 26 NA NA NOT_NAMED 1881-08-11 00:00:00 TS 12.6000 -26.6000 spur-merge 1011 1011 _____________O -1 12.6000 -26.6000 TD 30 9 304
1881223N13333 1881 26 NA NA NOT_NAMED 1881-08-11 03:00:00 TS 12.8626 -26.9998 spur-merge 1045 1045 _____________P -1 12.8626 -26.9998 TD 32 9 303
1881223N13333 1881 26 NA NA NOT_NAMED 1881-08-11 06:00:00 TS 13.1000 -27.4000 spur-merge 1083 1083 _____________O -1 13.1000 -27.4000 TS 35 9 299
1881223N13333 1881 26 NA NA NOT_NAMED 1881-08-11 09:00:00 TS 13.2999 -27.8001 spur-merge 1122 1122 _____________P -1 13.2999 -27.8001 TS 37 9 297
1881223N13333 1881 26 NA NA NOT_NAMED 1881-08-11 12:00:00 TS 13.5000 -28.2000 spur-merge 1162 1162 _____________O -1 13.5000 -28.2000 TS 40 9 300
1881223N13333 1881 26 NA NA NOT_NAMED 1881-08-11 15:00:00 TS 13.7499 -28.6000 spur-merge 1202 1200 _____________P -1 13.7499 -28.6000 TS 42 9 303
1881223N13333 1881 26 NA NA NOT_NAMED 1881-08-11 18:00:00 TS 14.0000 -29.0000 spur-merge 1241 1241 _____________O -1 14.0000 -29.0000 TS 45 9 300
1881223N13333 1881 26 NA NA NOT_NAMED 1881-08-11 21:00:00 TS 14.1999 -29.3927 spur-merge 1283 1283 _____________P -1 14.1999 -29.3927 TS 47 9 297
1881223N13333 1881 26 NA NA NOT_NAMED 1881-08-12 00:00:00 TS 14.4000 -29.8000 spur-merge 1324 1324 _____________O -1 14.4000 -29.8000 TS 50 9 298
1881223N13333 1881 26 NA NA NOT_NAMED 1881-08-12 03:00:00 TS 14.6500 -30.2500 spur-merge 1366 1366 _____________P -1 14.6500 -30.2500 TS 55 10 300
1881223N13333 1881 26 NA NA NOT_NAMED 1881-08-12 06:00:00 TS 14.9000 -30.7000 spur-merge 1419 1419 _____________O -1 14.9000 -30.7000 TS 60 9 298
1881223N13333 1881 26 NA NA NOT_NAMED 1881-08-12 09:00:00 TS 15.0697 -31.0780 spur-merge 1462 1462 _____________P -1 15.0697 -31.0780 TS 60 9 297
1881223N13333 1881 26 NA NA NOT_NAMED 1881-08-12 12:00:00 TS 15.3000 -31.5000 spur-merge 1505 1505 _____________O -1 15.3000 -31.5000 TS 60 12 303
1881223N13333 1881 26 NA NA NOT_NAMED 1881-08-12 15:00:00 TS 15.7051 -32.0774 spur-merge 1570 1570 _____________P -1 15.7051 -32.0774 TS 65 15 308
1881223N13333 1881 26 NA NA NOT_NAMED 1881-08-12 18:00:00 TS 16.2000 -32.7000 spur-merge 1637 1637 _____________O -1 16.2000 -32.7000 HU 70 15 311
1881223N13333 1881 26 NA NA NOT_NAMED 1881-08-12 21:00:00 TS 16.6998 -33.2577 spur-merge 1706 1706 _____________P -1 16.6998 -33.2577 HU 72 15 314
1881223N13333 1881 26 NA NA NOT_NAMED 1881-08-13 00:00:00 TS 17.2000 -33.8000 spur-merge 1765 1765 _____________O -1 17.2000 -33.8000 HU 75 14 313
1881223N13333 1881 26 NA NA NOT_NAMED 1881-08-13 03:00:00 TS 17.6573 -34.3503 spur-merge 1835 1835 _____________P -1 17.6573 -34.3503 HU 75 14 311
1881223N13333 1881 26 NA NA NOT_NAMED 1881-08-13 06:00:00 TS 18.1000 -34.9000 spur-merge 1889 1889 _____________O -1 18.1000 -34.9000 HU 75 14 311
1881223N13333 1881 26 NA NA NOT_NAMED 1881-08-13 09:00:00 TS 18.5649 -35.4576 spur-merge 1940 1940 _____________P -1 18.5649 -35.4576 HU 75 14 311
1881223N13333 1881 26 NA NA NOT_NAMED 1881-08-13 12:00:00 TS 19.0000 -36.0000 spur-merge 1985 1985 _____________O -1 19.0000 -36.0000 HU 75 13 309
1881223N13333 1881 26 NA NA NOT_NAMED 1881-08-13 15:00:00 TS 19.3723 -36.5078 spur-merge 2030 2030 _____________P -1 19.3723 -36.5078 HU 75 12 307
1881223N13333 1881 26 NA NA NOT_NAMED 1881-08-13 18:00:00 TS 19.7000 -37.0000 spur-merge 2078 2078 _____________O -1 19.7000 -37.0000 HU 75 11 304
1881223N13333 1881 26 NA NA NOT_NAMED 1881-08-13 21:00:00 TS 20.0074 -37.5003 spur-merge 2126 2126 _____________P -1 20.0074 -37.5003 HU 75 11 303
1881223N13333 1881 26 NA NA NOT_NAMED 1881-08-14 00:00:00 TS 20.3000 -38.0000 spur-merge 2174 2174 _____________O -1 20.3000 -38.0000 HU 75 11 302
1881223N13333 1881 26 NA NA NOT_NAMED 1881-08-14 03:00:00 TS 20.5924 -38.5003 spur-merge 2224 2224 _____________P -1 20.5924 -38.5003 HU 75 11 303
1881223N13333 1881 26 NA NA NOT_NAMED 1881-08-14 06:00:00 TS 20.9000 -39.0000 spur-merge 2273 2273 _____________O -1 20.9000 -39.0000 HU 75 11 305
1881223N13333 1881 26 NA NA NOT_NAMED 1881-08-14 09:00:00 TS 21.2499 -39.5001 spur-merge 2281 2279 _____________P -1 21.2499 -39.5001 HU 75 12 307
1881223N13333 1881 26 NA NA NOT_NAMED 1881-08-14 12:00:00 TS 21.6000 -40.0000 spur-merge 2283 2276 _____________O -1 21.6000 -40.0000 HU 75 11 305
1881223N13333 1881 26 NA NA NOT_NAMED 1881-08-14 15:00:00 TS 21.8998 -40.5004 spur-merge 2278 2269 _____________P -1 21.8998 -40.5004 HU 75 11 303
1881223N13333 1881 26 NA NA NOT_NAMED 1881-08-14 18:00:00 TS 22.2000 -41.0000 spur-merge 2275 2270 _____________O -1 22.2000 -41.0000 HU 75 11 305
1881223N13333 1881 26 NA NA NOT_NAMED 1881-08-14 21:00:00 TS 22.5498 -41.5001 spur-merge 2274 2274 _____________P -1 22.5498 -41.5001 HU 75 12 307
1881223N13333 1881 26 NA NA NOT_NAMED 1881-08-15 00:00:00 TS 22.9000 -42.0000 spur-merge 2285 2279 _____________O -1 22.9000 -42.0000 HU 75 11 305
1881223N13333 1881 26 NA NA NOT_NAMED 1881-08-15 03:00:00 TS 23.1998 -42.5004 spur-merge 2287 2282 _____________P -1 23.1998 -42.5004 HU 75 11 303
1881223N13333 1881 26 NA NA NOT_NAMED 1881-08-15 06:00:00 TS 23.5000 -43.0000 spur-merge 2292 2287 _____________O -1 23.5000 -43.0000 HU 75 11 305
1881223N13333 1881 26 NA NA NOT_NAMED 1881-08-15 09:00:00 TS 23.8423 -43.5002 spur-merge 2297 2297 _____________P -1 23.8423 -43.5002 HU 75 12 307
1881223N13333 1881 26 NA NA NOT_NAMED 1881-08-15 12:00:00 TS 24.2000 -44.0000 spur-merge 2315 2284 _____________O -1 24.2000 -44.0000 HU 75 12 308
1881223N13333 1881 26 NA NA NOT_NAMED 1881-08-15 15:00:00 TS 24.5498 -44.5003 spur-merge 2284 2245 _____________P -1 24.5528 -44.4995 HU 75 12 308
1881223N13333 1881 26 NA NA NOT_NAMED 1881-08-15 18:00:00 TS 24.9000 -45.0000 spur-merge 2245 _____________O -1 24.9000 -45.0000 HU 75 11 308

About IBTrACS Database

This database is a web-friendly format of International Best Track Archive for Climate Stewardship (IBTrACS), a global best track data archive curated by NOAA dating back to 1842.

Updated: 2021-10-25